createdAt,value
2023-02-05T00:00:26.990Z,9.18
2023-02-05T00:02:53.716Z,8.75
2023-02-05T00:05:20.465Z,6.75
2023-02-05T00:07:47.171Z,7.18
2023-02-05T00:10:13.982Z,7.30
2023-02-05T00:12:40.748Z,7.18
2023-02-05T00:15:07.935Z,7.80
2023-02-05T00:17:36.327Z,6.90
2023-02-05T00:20:04.685Z,6.45
2023-02-05T00:22:31.632Z,6.60
2023-02-05T00:24:58.410Z,7.18
2023-02-05T00:27:25.190Z,6.47
2023-02-05T00:29:51.937Z,7.18
2023-02-05T00:32:18.654Z,7.97
2023-02-05T00:34:45.382Z,7.88
2023-02-05T00:37:12.097Z,7.95
2023-02-05T00:39:38.950Z,6.10
2023-02-05T00:42:05.663Z,6.93
2023-02-05T00:44:32.425Z,7.55
2023-02-05T00:46:59.124Z,7.50
2023-02-05T00:49:25.998Z,7.85
2023-02-05T00:51:52.847Z,8.55
2023-02-05T00:54:19.659Z,6.80
2023-02-05T00:56:46.349Z,6.80
2023-02-05T00:59:16.234Z,7.10
2023-02-05T01:01:42.982Z,6.30
2023-02-05T01:04:09.690Z,7.45
2023-02-05T01:06:36.450Z,6.45
2023-02-05T01:09:03.292Z,6.45
2023-02-05T01:11:30.281Z,7.05
2023-02-05T01:13:56.976Z,6.30
2023-02-05T01:16:23.696Z,7.07
2023-02-05T01:18:50.765Z,7.35
2023-02-05T01:21:17.506Z,9.02
2023-02-05T01:23:44.327Z,7.55
2023-02-05T01:26:11.016Z,7.80
2023-02-05T01:28:37.734Z,8.52
2023-02-05T01:31:04.620Z,7.03
2023-02-05T01:33:31.353Z,8.85
2023-02-05T01:35:58.147Z,7.30
2023-02-05T01:38:24.851Z,8.50
2023-02-05T01:40:51.765Z,8.35
2023-02-05T01:43:19.258Z,7.63
2023-02-05T01:45:57.978Z,7.80
2023-02-05T01:48:32.497Z,10.27
2023-02-05T01:51:06.236Z,10.40
2023-02-05T01:53:35.396Z,8.93
2023-02-05T01:56:09.898Z,9.43
2023-02-05T01:58:42.286Z,8.77
2023-02-05T02:01:09.090Z,9.93
2023-02-05T02:03:35.888Z,10.10
2023-02-05T02:06:04.742Z,9.05
2023-02-05T02:08:32.896Z,10.60
2023-02-05T02:11:01.975Z,12.43
2023-02-05T02:13:31.217Z,11.18
2023-02-05T02:15:58.705Z,9.65
2023-02-05T02:18:26.948Z,11.30
2023-02-05T02:21:18.695Z,11.85
2023-02-05T02:24:20.540Z,11.82
2023-02-05T02:27:05.453Z,10.93
2023-02-05T02:29:47.141Z,13.38
2023-02-05T02:32:23.497Z,12.95
2023-02-05T02:35:01.157Z,17.05
2023-02-05T02:37:40.166Z,17.23
2023-02-05T02:40:33.495Z,16.13
2023-02-05T02:43:17.594Z,16.30
2023-02-05T02:45:51.528Z,15.90
2023-02-05T02:48:22.172Z,14.60
2023-02-05T02:50:52.436Z,13.95
2023-02-05T02:53:27.268Z,15.23
2023-02-05T02:55:57.061Z,14.40
2023-02-05T02:58:28.721Z,13.40
2023-02-05T03:00:56.993Z,14.95
2023-02-05T03:03:26.195Z,12.02
2023-02-05T03:05:55.961Z,12.10
2023-02-05T03:08:31.693Z,12.98
2023-02-05T03:11:06.710Z,12.98
2023-02-05T03:13:34.128Z,13.05
2023-02-05T03:16:01.176Z,12.60
2023-02-05T03:18:29.321Z,11.70
2023-02-05T03:20:58.728Z,12.60
2023-02-05T03:23:27.960Z,12.25
2023-02-05T03:25:54.736Z,10.30
2023-02-05T03:28:21.773Z,9.07
2023-02-05T03:31:00.229Z,9.90
2023-02-05T03:33:51.718Z,9.35
2023-02-05T03:36:46.670Z,8.60
2023-02-05T03:39:25.083Z,9.65
2023-02-05T03:42:34.114Z,7.68
2023-02-05T03:45:00.770Z,7.82
2023-02-05T03:47:58.896Z,8.77
2023-02-05T03:50:53.721Z,7.70
2023-02-05T03:53:27.854Z,9.00
2023-02-05T03:56:05.579Z,8.27
2023-02-05T03:58:38.710Z,7.72
2023-02-05T04:01:07.549Z,7.82
2023-02-05T04:03:34.397Z,6.78
2023-02-05T04:06:01.104Z,9.30
2023-02-05T04:08:27.839Z,6.03
2023-02-05T04:10:54.543Z,7.20
2023-02-05T04:13:21.285Z,7.70
2023-02-05T04:15:51.640Z,6.78
2023-02-05T04:18:18.873Z,7.80
2023-02-05T04:20:45.646Z,6.80
2023-02-05T04:23:12.488Z,7.43
2023-02-05T04:25:39.954Z,6.55
2023-02-05T04:28:09.422Z,6.97
2023-02-05T04:30:36.360Z,7.07
2023-02-05T04:33:03.206Z,7.22
2023-02-05T04:35:29.888Z,7.10
2023-02-05T04:37:56.609Z,8.35
2023-02-05T04:40:23.345Z,8.38
2023-02-05T04:42:50.103Z,5.45
2023-02-05T04:45:16.788Z,7.43
2023-02-05T04:47:43.508Z,6.43
2023-02-05T04:50:10.390Z,6.15
2023-02-05T04:52:37.118Z,6.25
2023-02-05T04:55:04.030Z,6.05
2023-02-05T04:57:31.631Z,5.53
2023-02-05T04:59:58.314Z,5.40
2023-02-05T05:02:25.145Z,5.65
2023-02-05T05:04:51.942Z,5.85
2023-02-05T05:07:18.666Z,6.55
2023-02-05T05:09:45.406Z,6.32
2023-02-05T05:12:12.152Z,5.85
2023-02-05T05:14:38.914Z,5.45
2023-02-05T05:17:05.743Z,5.97
2023-02-05T05:19:32.712Z,5.95
2023-02-05T05:22:00.071Z,5.78
2023-02-05T05:24:26.780Z,5.85
2023-02-05T05:26:53.518Z,6.13
2023-02-05T05:29:20.252Z,6.40
2023-02-05T05:31:47.009Z,6.32
2023-02-05T05:34:14.062Z,5.65
2023-02-05T05:36:43.630Z,6.43
2023-02-05T05:39:28.958Z,5.68
2023-02-05T05:42:14.428Z,5.43
2023-02-05T05:44:41.159Z,6.05
2023-02-05T05:47:07.906Z,5.60
2023-02-05T05:49:34.644Z,5.38
2023-02-05T05:52:01.386Z,5.03
2023-02-05T05:54:28.137Z,5.80
2023-02-05T05:56:54.866Z,6.82
2023-02-05T05:59:21.607Z,6.25
2023-02-05T06:01:48.382Z,5.78
2023-02-05T06:04:15.134Z,5.95
2023-02-05T06:06:42.549Z,6.05
2023-02-05T06:09:09.416Z,5.93
2023-02-05T06:11:36.171Z,6.75
2023-02-05T06:14:03.014Z,5.78
2023-02-05T06:16:29.762Z,6.47
2023-02-05T06:18:57.182Z,5.90
2023-02-05T06:21:23.915Z,5.50
2023-02-05T06:23:50.758Z,7.53
2023-02-05T06:26:17.462Z,5.63
2023-02-05T06:28:44.221Z,5.93
2023-02-05T06:31:11.021Z,5.35
2023-02-05T06:33:37.825Z,7.68
2023-02-05T06:36:04.955Z,6.32
2023-02-05T06:38:31.699Z,6.80
2023-02-05T06:40:58.442Z,6.97
2023-02-05T06:43:25.259Z,6.28
2023-02-05T06:45:52.015Z,8.20
2023-02-05T06:48:18.738Z,8.80
2023-02-05T06:50:46.016Z,9.23
2023-02-05T06:53:12.776Z,8.63
2023-02-05T06:55:39.673Z,8.15
2023-02-05T06:58:07.729Z,7.72
2023-02-05T07:00:35.386Z,8.93
2023-02-05T07:03:02.144Z,8.65
2023-02-05T07:05:28.997Z,8.57
2023-02-05T07:07:55.761Z,8.98
2023-02-05T07:10:22.554Z,9.15
2023-02-05T07:12:49.261Z,13.18
2023-02-05T07:15:16.026Z,16.42
2023-02-05T07:17:42.778Z,16.30
2023-02-05T07:20:10.096Z,12.63
2023-02-05T07:22:36.885Z,10.38
2023-02-05T07:25:04.726Z,10.18
2023-02-05T07:27:31.652Z,8.05
2023-02-05T07:29:58.454Z,7.72
2023-02-05T07:32:25.219Z,8.15
2023-02-05T07:34:52.020Z,7.68
2023-02-05T07:37:21.114Z,6.97
2023-02-05T07:39:48.151Z,6.18
2023-02-05T07:42:14.836Z,5.53
2023-02-05T07:44:41.581Z,6.60
2023-02-05T07:47:08.268Z,7.25
2023-02-05T07:49:35.999Z,6.93
2023-02-05T07:52:02.801Z,7.60
2023-02-05T07:54:29.567Z,7.40
2023-02-05T07:56:56.368Z,7.30
2023-02-05T07:59:23.153Z,7.35
2023-02-05T08:01:49.876Z,7.45
2023-02-05T08:04:16.649Z,6.40
2023-02-05T08:06:43.728Z,7.45
2023-02-05T08:09:11.374Z,7.43
2023-02-05T08:11:38.276Z,6.85
2023-02-05T08:14:05.060Z,6.85
2023-02-05T08:16:31.771Z,6.55
2023-02-05T08:18:58.582Z,6.85
2023-02-05T08:21:25.348Z,6.97
2023-02-05T08:23:52.153Z,6.60
2023-02-05T08:26:19.165Z,7.18
2023-02-05T08:28:46.162Z,6.55
2023-02-05T08:31:15.353Z,7.55
2023-02-05T08:33:42.265Z,6.80
2023-02-05T08:36:09.820Z,6.65
2023-02-05T08:38:36.935Z,6.45
2023-02-05T08:41:12.482Z,6.28
2023-02-05T08:43:47.697Z,6.57
2023-02-05T08:46:19.229Z,6.07
2023-02-05T08:48:46.931Z,7.60
2023-02-05T08:51:15.139Z,6.80
2023-02-05T08:53:42.362Z,8.32
2023-02-05T08:56:10.746Z,7.65
2023-02-05T08:58:39.150Z,7.45
2023-02-05T09:01:12.015Z,9.13
2023-02-05T09:03:38.976Z,8.98
2023-02-05T09:06:08.441Z,8.60
2023-02-05T09:08:36.006Z,11.25
2023-02-05T09:11:02.813Z,9.68
2023-02-05T09:13:29.509Z,10.85
2023-02-05T09:15:56.259Z,9.32
2023-02-05T09:18:23.012Z,10.18
2023-02-05T09:20:50.641Z,10.23
2023-02-05T09:23:18.697Z,8.90
2023-02-05T09:25:45.608Z,12.65
2023-02-05T09:28:14.150Z,9.80
2023-02-05T09:30:44.263Z,10.05
2023-02-05T09:33:12.259Z,9.40
2023-02-05T09:35:39.259Z,10.95
2023-02-05T09:38:06.351Z,11.35
2023-02-05T09:40:39.515Z,9.27
2023-02-05T09:43:38.795Z,9.57
2023-02-05T09:46:22.768Z,10.75
2023-02-05T09:49:10.936Z,10.32
2023-02-05T09:51:48.068Z,12.20
2023-02-05T09:54:27.120Z,11.48
2023-02-05T09:56:57.863Z,9.73
2023-02-05T09:59:27.434Z,11.13
2023-02-05T10:01:58.432Z,11.57
2023-02-05T10:04:27.391Z,10.38
2023-02-05T10:07:19.086Z,11.77
2023-02-05T10:09:58.624Z,11.50
2023-02-05T10:12:53.693Z,10.13
2023-02-05T10:15:59.307Z,12.52
2023-02-05T10:19:07.369Z,9.43
2023-02-05T10:22:15.315Z,10.98
2023-02-05T10:24:59.032Z,11.02
2023-02-05T10:27:38.637Z,11.57
2023-02-05T10:30:10.947Z,11.32
2023-02-05T10:32:47.289Z,10.20
2023-02-05T10:35:39.015Z,11.38
2023-02-05T10:38:22.956Z,12.60
2023-02-05T10:40:53.227Z,10.13
2023-02-05T10:43:43.717Z,10.60
2023-02-05T10:46:15.530Z,9.77
2023-02-05T10:48:54.585Z,10.95
2023-02-05T10:51:50.717Z,10.23
2023-02-05T10:54:26.380Z,9.55
2023-02-05T10:56:53.319Z,10.65
2023-02-05T10:59:27.890Z,9.90
2023-02-05T11:01:57.051Z,10.90
2023-02-05T11:04:48.278Z,9.20
2023-02-05T11:07:28.248Z,11.13
2023-02-05T11:09:55.110Z,10.20
2023-02-05T11:12:32.568Z,10.48
2023-02-05T11:15:02.097Z,11.70
2023-02-05T11:17:35.887Z,12.20
2023-02-05T11:20:35.856Z,11.27
2023-02-05T11:23:19.457Z,12.18
2023-02-05T11:26:01.012Z,12.32
2023-02-05T11:28:36.081Z,12.82
2023-02-05T11:31:34.757Z,10.77
2023-02-05T11:34:07.644Z,10.90
2023-02-05T11:36:39.377Z,10.60
2023-02-05T11:39:07.688Z,10.75
2023-02-05T11:41:48.819Z,10.32
2023-02-05T11:44:32.254Z,10.52
2023-02-05T11:47:01.253Z,11.27
2023-02-05T11:49:37.847Z,9.55
2023-02-05T11:52:13.813Z,9.90
2023-02-05T11:54:46.075Z,10.10
2023-02-05T11:57:19.800Z,9.95
2023-02-05T12:00:20.602Z,10.60
2023-02-05T12:02:53.919Z,11.10
2023-02-05T12:05:31.279Z,9.75
2023-02-05T12:08:16.202Z,9.52
2023-02-05T12:11:17.391Z,10.63
2023-02-05T12:13:59.297Z,10.82
2023-02-05T12:16:53.587Z,12.65
2023-02-05T12:19:30.945Z,10.93
2023-02-05T12:22:06.911Z,10.48
2023-02-05T12:24:47.492Z,10.18
2023-02-05T12:27:32.238Z,12.27
2023-02-05T12:30:32.112Z,12.15
2023-02-05T12:33:38.748Z,11.05
2023-02-05T12:36:20.428Z,12.38
2023-02-05T12:39:30.909Z,10.50
2023-02-05T12:42:18.840Z,11.40
2023-02-05T12:45:30.419Z,11.07
2023-02-05T12:48:27.480Z,10.80
2023-02-05T12:51:03.400Z,11.48
2023-02-05T12:53:39.884Z,12.82
2023-02-05T12:56:25.064Z,13.02
2023-02-05T12:59:06.942Z,12.00
2023-02-05T13:01:39.155Z,11.60
2023-02-05T13:04:07.574Z,13.45
2023-02-05T13:06:47.164Z,12.30
2023-02-05T13:09:23.919Z,12.32
2023-02-05T13:11:56.436Z,11.10
2023-02-05T13:14:28.202Z,11.90
2023-02-05T13:17:01.092Z,11.85
2023-02-05T13:19:43.816Z,12.43
2023-02-05T13:22:50.416Z,11.88
2023-02-05T13:25:59.054Z,12.65
2023-02-05T13:28:41.723Z,13.07
2023-02-05T13:31:17.357Z,13.63
2023-02-05T13:33:44.854Z,15.93
2023-02-05T13:36:20.334Z,18.45
2023-02-05T13:39:05.036Z,17.02
2023-02-05T13:41:37.934Z,17.40
2023-02-05T13:44:26.782Z,16.75
2023-02-05T13:47:22.686Z,15.77
2023-02-05T13:50:14.037Z,13.23
2023-02-05T13:52:53.686Z,14.52
2023-02-05T13:55:20.720Z,13.23
2023-02-05T13:58:05.684Z,15.40
2023-02-05T14:00:33.670Z,13.18
2023-02-05T14:03:05.710Z,12.95
2023-02-05T14:05:36.095Z,12.02
2023-02-05T14:08:04.088Z,13.73
2023-02-05T14:10:35.256Z,11.00
2023-02-05T14:13:26.139Z,10.68
2023-02-05T14:15:57.531Z,11.05
2023-02-05T14:18:45.194Z,12.07
2023-02-05T14:21:30.368Z,9.52
2023-02-05T14:24:21.710Z,8.93
2023-02-05T14:26:57.658Z,8.77
2023-02-05T14:29:48.081Z,10.80
2023-02-05T14:32:30.107Z,8.68
2023-02-05T14:35:19.569Z,10.45
2023-02-05T14:37:49.771Z,9.13
2023-02-05T14:40:27.306Z,7.55
2023-02-05T14:43:09.873Z,7.57
2023-02-05T14:45:47.585Z,7.85
2023-02-05T14:48:28.924Z,8.30
2023-02-05T14:51:07.851Z,8.38
2023-02-05T14:53:37.371Z,8.90
2023-02-05T14:56:05.489Z,7.95
2023-02-05T14:58:39.775Z,8.57
2023-02-05T15:01:28.452Z,9.40
2023-02-05T15:03:57.292Z,12.82
2023-02-05T15:06:27.425Z,10.30
2023-02-05T15:09:13.553Z,11.05
2023-02-05T15:12:01.591Z,10.02
2023-02-05T15:14:43.829Z,10.65
2023-02-05T15:17:10.744Z,11.05
2023-02-05T15:19:44.441Z,10.60
2023-02-05T15:22:23.362Z,10.13
2023-02-05T15:24:53.605Z,10.63
2023-02-05T15:27:28.773Z,13.90
2023-02-05T15:29:57.423Z,11.65
2023-02-05T15:32:29.714Z,12.00
2023-02-05T15:35:17.881Z,12.23
2023-02-05T15:38:00.103Z,13.82
2023-02-05T15:40:30.580Z,11.77
2023-02-05T15:43:17.775Z,14.13
2023-02-05T15:45:45.745Z,14.05
2023-02-05T15:48:13.624Z,9.20
2023-02-05T15:51:00.222Z,10.10
2023-02-05T15:53:35.800Z,10.13
2023-02-05T15:56:29.546Z,12.85
2023-02-05T15:59:03.928Z,14.13
2023-02-05T16:01:36.781Z,18.77
2023-02-05T16:04:26.932Z,21.58
2023-02-05T16:06:53.740Z,18.23
2023-02-05T16:09:24.213Z,15.77
2023-02-05T16:11:51.682Z,14.60
2023-02-05T16:14:21.377Z,13.85
2023-02-05T16:17:19.340Z,14.80
2023-02-05T16:19:51.739Z,15.23
2023-02-05T16:22:42.630Z,14.27
2023-02-05T16:25:32.552Z,15.57
2023-02-05T16:28:02.673Z,14.52
2023-02-05T16:30:42.949Z,13.30
2023-02-05T16:33:39.498Z,12.90
2023-02-05T16:36:13.436Z,12.73
2023-02-05T16:38:40.260Z,12.25
2023-02-05T16:41:29.400Z,23.00
2023-02-05T16:43:59.874Z,13.88
2023-02-05T16:46:28.907Z,12.50
2023-02-05T16:49:01.015Z,14.20
2023-02-05T16:51:56.980Z,12.70
2023-02-05T16:54:35.050Z,15.73
2023-02-05T16:57:15.345Z,14.15
2023-02-05T16:59:56.018Z,15.20
2023-02-05T17:02:32.051Z,14.60
2023-02-05T17:05:01.464Z,14.40
2023-02-05T17:07:30.008Z,15.88
2023-02-05T17:10:29.132Z,16.77
2023-02-05T17:13:05.153Z,16.42
2023-02-05T17:15:36.022Z,15.55
2023-02-05T17:18:27.742Z,11.90
2023-02-05T17:21:27.630Z,12.50
2023-02-05T17:23:57.128Z,13.55
2023-02-05T17:26:24.900Z,14.27
2023-02-05T17:28:57.059Z,12.88
2023-02-05T17:31:26.413Z,13.25
2023-02-05T17:33:55.369Z,12.20
2023-02-05T17:36:22.284Z,11.43
2023-02-05T17:38:50.102Z,12.25
2023-02-05T17:41:37.781Z,13.15
2023-02-05T17:44:05.135Z,11.77
2023-02-05T17:46:32.164Z,13.27
2023-02-05T17:48:58.972Z,12.93
2023-02-05T17:51:26.866Z,14.98
2023-02-05T17:53:53.786Z,12.93
2023-02-05T17:56:21.474Z,14.85
2023-02-05T17:58:49.847Z,17.02
2023-02-05T18:01:16.972Z,16.95
2023-02-05T18:03:44.286Z,16.65
2023-02-05T18:06:14.068Z,19.38
2023-02-05T18:08:42.160Z,16.55
2023-02-05T18:11:10.085Z,15.85
2023-02-05T18:13:37.193Z,16.73
2023-02-05T18:16:04.128Z,15.75
2023-02-05T18:18:31.995Z,15.50
2023-02-05T18:20:59.162Z,17.45
2023-02-05T18:23:29.420Z,16.95
2023-02-05T18:25:59.845Z,16.23
2023-02-05T18:28:27.312Z,17.38
2023-02-05T18:31:00.099Z,15.65
2023-02-05T18:33:27.409Z,17.15
2023-02-05T18:35:54.824Z,16.33
2023-02-05T18:38:21.902Z,13.45
2023-02-05T18:40:49.025Z,14.60
2023-02-05T18:43:15.769Z,17.25
2023-02-05T18:45:42.532Z,14.35
2023-02-05T18:48:09.256Z,14.70
2023-02-05T18:50:36.341Z,12.30
2023-02-05T18:53:03.580Z,15.25
2023-02-05T18:55:35.058Z,15.93
2023-02-05T18:58:02.977Z,14.90
2023-02-05T19:00:29.804Z,14.32
2023-02-05T19:02:57.471Z,14.63
2023-02-05T19:05:24.382Z,13.88
2023-02-05T19:07:51.134Z,24.25
2023-02-05T19:10:18.431Z,16.92
2023-02-05T19:12:45.124Z,15.60
2023-02-05T19:15:11.827Z,16.23
2023-02-05T19:17:38.498Z,16.92
2023-02-05T19:20:06.044Z,17.77
2023-02-05T19:22:32.780Z,16.35
2023-02-05T19:24:59.530Z,15.45
2023-02-05T19:27:26.237Z,15.00
2023-02-05T19:29:53.017Z,15.95
2023-02-05T19:32:19.849Z,18.05
2023-02-05T19:34:46.670Z,16.90
2023-02-05T19:37:13.490Z,15.07
2023-02-05T19:39:40.262Z,16.77
2023-02-05T19:42:07.218Z,18.05
2023-02-05T19:44:34.002Z,16.52
2023-02-05T19:47:00.741Z,16.23
2023-02-05T19:49:27.652Z,16.30
2023-02-05T19:51:56.288Z,16.42
2023-02-05T19:54:23.429Z,15.70
2023-02-05T19:56:50.503Z,17.53
2023-02-05T19:59:17.512Z,19.10
2023-02-05T20:01:45.250Z,15.98
2023-02-05T20:04:18.074Z,16.63
2023-02-05T20:06:46.764Z,17.15
2023-02-05T20:09:15.359Z,17.98
2023-02-05T20:11:43.794Z,16.70
2023-02-05T20:14:11.295Z,17.75
2023-02-05T20:16:42.456Z,17.42
2023-02-05T20:19:11.482Z,19.42
2023-02-05T20:21:38.597Z,19.98
2023-02-05T20:24:07.433Z,18.40
2023-02-05T20:26:35.505Z,18.58
2023-02-05T20:29:21.094Z,19.67
2023-02-05T20:31:51.147Z,21.15
2023-02-05T20:34:22.280Z,21.42
2023-02-05T20:36:57.681Z,21.10
2023-02-05T20:39:28.746Z,22.13
2023-02-05T20:41:57.925Z,21.73
2023-02-05T20:44:30.229Z,22.05
2023-02-05T20:46:57.059Z,24.90
2023-02-05T20:49:24.028Z,42.40
2023-02-05T20:51:52.946Z,26.60
2023-02-05T20:54:20.269Z,24.23
2023-02-05T20:56:49.500Z,24.33
2023-02-05T20:59:16.236Z,21.20
2023-02-05T21:01:42.977Z,23.92
2023-02-05T21:04:10.159Z,21.55
2023-02-05T21:06:38.773Z,23.60
2023-02-05T21:09:06.576Z,25.75
2023-02-05T21:11:33.821Z,22.80
2023-02-05T21:14:00.672Z,21.42
2023-02-05T21:16:27.864Z,22.35
2023-02-05T21:18:55.249Z,22.77
2023-02-05T21:21:25.331Z,21.33
2023-02-05T21:23:56.154Z,22.27
2023-02-05T21:26:26.220Z,23.65
2023-02-05T21:29:14.231Z,22.80
2023-02-05T21:31:46.473Z,23.65
2023-02-05T21:34:16.194Z,20.65
2023-02-05T21:36:43.214Z,23.77
2023-02-05T21:39:12.206Z,25.17
2023-02-05T21:41:39.592Z,22.55
2023-02-05T21:44:06.406Z,24.80
2023-02-05T21:46:33.413Z,25.70
2023-02-05T21:49:01.182Z,24.27
2023-02-05T21:51:30.294Z,24.15
2023-02-05T21:54:01.909Z,22.35
2023-02-05T21:56:35.384Z,21.88
2023-02-05T21:59:02.359Z,22.77
2023-02-05T22:01:31.937Z,24.50
2023-02-05T22:04:16.517Z,23.65
2023-02-05T22:06:44.194Z,22.27
2023-02-05T22:09:14.843Z,21.08
2023-02-05T22:11:42.390Z,23.33
2023-02-05T22:14:10.618Z,24.45
2023-02-05T22:16:37.771Z,23.88
2023-02-05T22:19:05.487Z,23.85
2023-02-05T22:21:35.100Z,20.85
2023-02-05T22:24:03.406Z,20.73
2023-02-05T22:26:37.916Z,19.70
2023-02-05T22:29:06.428Z,21.02
2023-02-05T22:31:33.850Z,20.50
2023-02-05T22:34:00.947Z,17.85
2023-02-05T22:36:29.980Z,19.63
2023-02-05T22:38:57.112Z,20.58
2023-02-05T22:41:29.560Z,21.05
2023-02-05T22:43:58.127Z,18.65
2023-02-05T22:46:27.497Z,19.30
2023-02-05T22:48:55.423Z,21.38
2023-02-05T22:51:24.649Z,19.60
2023-02-05T22:53:55.628Z,18.58
2023-02-05T22:56:22.827Z,18.38
2023-02-05T22:58:51.098Z,19.98
2023-02-05T23:01:21.776Z,19.77
2023-02-05T23:03:50.751Z,19.95
2023-02-05T23:06:33.291Z,19.92
2023-02-05T23:09:02.736Z,19.98
2023-02-05T23:11:31.438Z,21.02
2023-02-05T23:13:59.741Z,18.25
2023-02-05T23:16:29.947Z,20.10
2023-02-05T23:18:59.771Z,21.83
2023-02-05T23:21:28.511Z,20.75
2023-02-05T23:23:55.958Z,19.60
2023-02-05T23:26:25.015Z,20.13
2023-02-05T23:28:53.246Z,23.42
2023-02-05T23:31:21.086Z,18.92
2023-02-05T23:33:47.913Z,19.27
2023-02-05T23:36:14.891Z,18.88
2023-02-05T23:38:41.758Z,20.50
2023-02-05T23:41:09.100Z,22.90
2023-02-05T23:43:37.126Z,24.38
2023-02-05T23:46:05.618Z,18.10
2023-02-05T23:48:32.699Z,20.48
2023-02-05T23:50:59.960Z,20.33
2023-02-05T23:53:26.759Z,19.92
2023-02-05T23:55:54.080Z,18.90
2023-02-05T23:58:25.992Z,21.00
